McKenzie, North Dakota
Current Conditions -  °F | °C
As of 2:52 AM on Monday 24 Nov 2014 (Local Time) from KBIS Reporting Station
Scattered Clouds Scattered Clouds  
Wind Chill: -1°   Ceiling: Unl
Heat Index: 14°   Visibility: 10mi
Dew Point:   Wind: 14mph
Humidity: 80%   Direction: 330°NNW
Pressure: 29.76"   Gusts: NA
Location:  46.82°N, 100.41°W
Report Text: KBIS 240852Z AUTO 33012KT 10SM SCT016 M10/M13 A2976 RMK AO2 SNB0754E26 SLP107 P0000 60000 T11001128 53005
Loading
Personal Weather Stations






























Interactive Weather Map New forecast layout! Learn more

10-Day Weather Forecast

Advertisements
Track Severe Weather on mobile